ANA126 RJTT-KLAX
Flight info
| Callsign | ANA126 |
|---|---|
| Flight time | N/A |
| Altitude | 37000 |
| Route | INUBO Y808 NOLAX Y812 ADNAP OTR5 KALNA 42N160E 42N170E 41N180E/N0484F390 40N170W 40N160W 40N150W 40N140W/N0478F410 38N130W DCT ALLBE DCT ROVUE DCT SERFR DCT BURGL IRNMN2 |
| Aircraft | B772/H-SDE2E3FGHIJ5LORVWXY/LB1D1 |
Departure
| Time | 2026-05-04 22:56 |
|---|---|
| Airport | Tokyo Haneda International Airport (RJTT) |
Arrival
| Time | N/A |
|---|---|
| Airport | Los Angeles International Airport (KLAX) |
| Time | Latitude | Longitude | Altitude | Speed | Heading |
|---|---|---|---|---|---|
| 2026-05-04 22:24 | 35.54583 | 139.77017 | 37 ft | 0 kts | 240° |
| 2026-05-04 22:40 | 35.54585 | 139.77022 | 36 ft | 2 kts | 240° |
| 2026-05-04 22:40 | 35.54592 | 139.77037 | 36 ft | 2 kts | 240° |
| 2026-05-04 22:40 | 35.54600 | 139.77054 | 36 ft | 2 kts | 240° |
| 2026-05-04 22:40 | 35.54605 | 139.77063 | 36 ft | 2 kts | 239° |
| 2026-05-04 22:41 | 35.54613 | 139.77078 | 36 ft | 2 kts | 221° |
| 2026-05-04 22:41 | 35.54626 | 139.77089 | 36 ft | 2 kts | 206° |
| 2026-05-04 22:41 | 35.54640 | 139.77095 | 36 ft | 2 kts | 191° |
| 2026-05-04 22:41 | 35.54654 | 139.77097 | 36 ft | 2 kts | 175° |
| 2026-05-04 22:42 | 35.54669 | 139.77094 | 36 ft | 2 kts | 160° |
| 2026-05-04 22:42 | 35.54678 | 139.77089 | 36 ft | 0 kts | 150° |
| 2026-05-04 22:42 | 35.54682 | 139.77086 | 36 ft | 0 kts | 149° |
| 2026-05-04 22:47 | 35.54681 | 139.77087 | 36 ft | 1 kts | 149° |
| 2026-05-04 22:47 | 35.54653 | 139.77107 | 36 ft | 7 kts | 150° |
| 2026-05-04 22:47 | 35.54592 | 139.77150 | 33 ft | 12 kts | 147° |
| 2026-05-04 22:47 | 35.54570 | 139.77255 | 28 ft | 15 kts | 66° |
| 2026-05-04 22:48 | 35.54624 | 139.77371 | 27 ft | 15 kts | 59° |
| 2026-05-04 22:48 | 35.54625 | 139.77490 | 27 ft | 14 kts | 131° |
| 2026-05-04 22:48 | 35.54534 | 139.77563 | 23 ft | 17 kts | 149° |
| 2026-05-04 22:48 | 35.54432 | 139.77635 | 24 ft | 16 kts | 151° |
| 2026-05-04 22:49 | 35.54343 | 139.77698 | 29 ft | 12 kts | 149° |
| 2026-05-04 22:49 | 35.54311 | 139.77721 | 32 ft | 9 kts | 149° |
| 2026-05-04 22:49 | 35.54258 | 139.77759 | 34 ft | 8 kts | 149° |
| 2026-05-04 22:49 | 35.54199 | 139.77802 | 34 ft | 11 kts | 150° |
| 2026-05-04 22:50 | 35.54121 | 139.77856 | 31 ft | 14 kts | 150° |
| 2026-05-04 22:50 | 35.54023 | 139.77925 | 29 ft | 17 kts | 150° |
| 2026-05-04 22:50 | 35.53951 | 139.78041 | 25 ft | 19 kts | 75° |
| 2026-05-04 22:50 | 35.54018 | 139.78195 | 23 ft | 21 kts | 59° |
| 2026-05-04 22:51 | 35.54090 | 139.78345 | 28 ft | 18 kts | 60° |
| 2026-05-04 22:51 | 35.54147 | 139.78468 | 37 ft | 18 kts | 60° |
| 2026-05-04 22:51 | 35.54218 | 139.78613 | 42 ft | 17 kts | 59° |
| 2026-05-04 22:51 | 35.54282 | 139.78748 | 50 ft | 18 kts | 60° |
| 2026-05-04 22:52 | 35.54351 | 139.78899 | 52 ft | 23 kts | 60° |
| 2026-05-04 22:52 | 35.54435 | 139.79077 | 48 ft | 25 kts | 59° |
| 2026-05-04 22:52 | 35.54532 | 139.79277 | 33 ft | 30 kts | 59° |
| 2026-05-04 22:52 | 35.54646 | 139.79520 | 16 ft | 35 kts | 60° |
| 2026-05-04 22:53 | 35.54717 | 139.79692 | 15 ft | 12 kts | 94° |
| 2026-05-04 22:53 | 35.54659 | 139.79770 | 15 ft | 12 kts | 150° |
| 2026-05-04 22:53 | 35.54576 | 139.79828 | 15 ft | 16 kts | 149° |
| 2026-05-04 22:53 | 35.54449 | 139.79919 | 15 ft | 25 kts | 149° |
| 2026-05-04 22:54 | 35.54293 | 139.80026 | 15 ft | 25 kts | 150° |
| 2026-05-04 22:54 | 35.54143 | 139.80136 | 15 ft | 24 kts | 150° |
| 2026-05-04 22:54 | 35.53997 | 139.80237 | 15 ft | 24 kts | 150° |
| 2026-05-04 22:54 | 35.53910 | 139.80328 | 15 ft | 13 kts | 102° |
| 2026-05-04 22:55 | 35.53945 | 139.80431 | 15 ft | 12 kts | 59° |
| 2026-05-04 22:55 | 35.53981 | 139.80492 | 15 ft | 5 kts | 30° |
| 2026-05-04 22:55 | 35.54016 | 139.80482 | 15 ft | 0 kts | 330° |
| 2026-05-04 22:55 | 35.54075 | 139.80441 | 15 ft | 36 kts | 330° |
| 2026-05-04 22:56 | 35.54510 | 139.80131 | 15 ft | 107 kts | 329° |
| 2026-05-04 22:56 | 35.55340 | 139.79535 | 39 ft | 164 kts | 327° |
| 2026-05-04 22:56 | 35.56327 | 139.78809 | 707 ft | 168 kts | 329° |
| 2026-05-04 22:56 | 35.57394 | 139.78154 | 1431 ft | 170 kts | 343° |
| 2026-05-04 22:57 | 35.58556 | 139.77936 | 1804 ft | 177 kts | 360° |
| 2026-05-04 22:57 | 35.59807 | 139.78178 | 2118 ft | 187 kts | 18° |
| 2026-05-04 22:57 | 35.60985 | 139.79045 | 2268 ft | 214 kts | 38° |
| 2026-05-04 22:57 | 35.62082 | 139.80441 | 2595 ft | 235 kts | 45° |
| 2026-05-04 22:58 | 35.63149 | 139.82039 | 3058 ft | 251 kts | 49° |
| 2026-05-04 22:58 | 35.64274 | 139.83684 | 3738 ft | 253 kts | 37° |
| 2026-05-04 22:58 | 35.65838 | 139.84697 | 4261 ft | 258 kts | 13° |
| 2026-05-04 22:58 | 35.67569 | 139.85188 | 4983 ft | 259 kts | 7° |
| 2026-05-04 22:59 | 35.69368 | 139.85494 | 5657 ft | 260 kts | 355° |
| 2026-05-04 22:59 | 35.71120 | 139.84984 | 6211 ft | 261 kts | 330° |
| 2026-05-04 22:59 | 35.72628 | 139.83807 | 6888 ft | 261 kts | 322° |
| 2026-05-04 22:59 | 35.74127 | 139.82547 | 7677 ft | 261 kts | 330° |
| 2026-05-04 23:00 | 35.75890 | 139.81928 | 8348 ft | 269 kts | 353° |
| 2026-05-04 23:00 | 35.77756 | 139.82237 | 8997 ft | 278 kts | 13° |
| 2026-05-04 23:00 | 35.79592 | 139.83069 | 9705 ft | 281 kts | 18° |
| 2026-05-04 23:00 | 35.81405 | 139.83987 | 10328 ft | 286 kts | 17° |
| 2026-05-04 23:01 | 35.83290 | 139.84949 | 10624 ft | 303 kts | 17° |
| 2026-05-04 23:01 | 35.85313 | 139.85979 | 10945 ft | 319 kts | 17° |
| 2026-05-04 23:01 | 35.87428 | 139.86952 | 11235 ft | 332 kts | 11° |
| 2026-05-04 23:01 | 35.89760 | 139.87505 | 11483 ft | 345 kts | 0° |
| 2026-05-04 23:02 | 35.92196 | 139.87499 | 11830 ft | 354 kts | 350° |
| 2026-05-04 23:02 | 35.94669 | 139.87218 | 12534 ft | 358 kts | 353° |
| 2026-05-04 23:02 | 35.97138 | 139.87264 | 13514 ft | 356 kts | 358° |
| 2026-05-04 23:02 | 35.99599 | 139.87584 | 14315 ft | 358 kts | 2° |
| 2026-05-04 23:03 | 36.02075 | 139.88117 | 14809 ft | 369 kts | 5° |
| 2026-05-04 23:03 | 36.04635 | 139.88829 | 15367 ft | 377 kts | 6° |
| 2026-05-04 23:03 | 36.07195 | 139.89647 | 15970 ft | 383 kts | 9° |
| 2026-05-04 23:03 | 36.09759 | 139.90593 | 16597 ft | 388 kts | 10° |
| 2026-05-04 23:04 | 36.12362 | 139.91650 | 16960 ft | 398 kts | 13° |
| 2026-05-04 23:04 | 36.14906 | 139.93117 | 16988 ft | 408 kts | 23° |
| 2026-05-04 23:04 | 36.17254 | 139.95172 | 17008 ft | 416 kts | 34° |
| 2026-05-04 23:04 | 36.19501 | 139.98102 | 17127 ft | 426 kts | 45° |
| 2026-05-04 23:05 | 36.21118 | 140.01209 | 17130 ft | 437 kts | 57° |
| 2026-05-04 23:05 | 36.22268 | 140.04706 | 17132 ft | 441 kts | 68° |
| 2026-05-04 23:05 | 36.22897 | 140.08447 | 17141 ft | 449 kts | 77° |
| 2026-05-04 23:05 | 36.23337 | 140.12308 | 17146 ft | 452 kts | 77° |
| 2026-05-04 23:06 | 36.23782 | 140.16124 | 17132 ft | 453 kts | 80° |
| 2026-05-04 23:06 | 36.23858 | 140.20033 | 17148 ft | 456 kts | 91° |
| 2026-05-04 23:06 | 36.23404 | 140.23933 | 17146 ft | 461 kts | 102° |
| 2026-05-04 23:06 | 36.22427 | 140.27722 | 17146 ft | 462 kts | 112° |
| 2026-05-04 23:07 | 36.20936 | 140.31268 | 17354 ft | 472 kts | 124° |
| 2026-05-04 23:07 | 36.18941 | 140.34456 | 18076 ft | 468 kts | 135° |
| 2026-05-04 23:07 | 36.16582 | 140.37205 | 18745 ft | 464 kts | 144° |
| 2026-05-04 23:07 | 36.14113 | 140.39754 | 19346 ft | 465 kts | 145° |
| 2026-05-04 23:08 | 36.11606 | 140.42276 | 19854 ft | 468 kts | 147° |
| 2026-05-04 23:08 | 36.09049 | 140.44814 | 20389 ft | 470 kts | 148° |
| 2026-05-04 23:08 | 36.06494 | 140.47328 | 20890 ft | 473 kts | 149° |
| 2026-05-04 23:08 | 36.03926 | 140.49841 | 21412 ft | 474 kts | 149° |
| 2026-05-04 23:09 | 36.01320 | 140.52379 | 21922 ft | 476 kts | 150° |
| 2026-05-04 23:09 | 35.98719 | 140.54901 | 22382 ft | 479 kts | 151° |
| 2026-05-04 23:09 | 35.96077 | 140.57457 | 22879 ft | 480 kts | 152° |
| 2026-05-04 23:09 | 35.93476 | 140.59969 | 23458 ft | 479 kts | 153° |
| 2026-05-04 23:10 | 35.90841 | 140.62505 | 23857 ft | 483 kts | 153° |
| 2026-05-04 23:10 | 35.88166 | 140.65076 | 24382 ft | 483 kts | 154° |
| 2026-05-04 23:10 | 35.85522 | 140.67616 | 24873 ft | 484 kts | 154° |
| 2026-05-04 23:10 | 35.82858 | 140.70169 | 25207 ft | 488 kts | 154° |
| 2026-05-04 23:11 | 35.80169 | 140.72745 | 25708 ft | 488 kts | 155° |
| 2026-05-04 23:11 | 35.77535 | 140.75273 | 26276 ft | 487 kts | 154° |
| 2026-05-04 23:11 | 35.74981 | 140.78178 | 26738 ft | 504 kts | 145° |
| 2026-05-04 23:11 | 35.72792 | 140.81551 | 27294 ft | 518 kts | 136° |
| 2026-05-04 23:12 | 35.70960 | 140.85408 | 27791 ft | 532 kts | 127° |
| 2026-05-04 23:12 | 35.69529 | 140.89702 | 28184 ft | 546 kts | 121° |
| 2026-05-04 23:12 | 35.68264 | 140.94130 | 28376 ft | 553 kts | 119° |
| 2026-05-04 23:12 | 35.66995 | 140.98595 | 28507 ft | 561 kts | 120° |
| 2026-05-04 23:13 | 35.65701 | 141.03108 | 28806 ft | 564 kts | 120° |
| 2026-05-04 23:13 | 35.64390 | 141.07652 | 29268 ft | 563 kts | 120° |
| 2026-05-04 23:13 | 35.63078 | 141.12163 | 29634 ft | 564 kts | 121° |
| 2026-05-04 23:13 | 35.61753 | 141.16690 | 30053 ft | 565 kts | 121° |
| 2026-05-04 23:14 | 35.60421 | 141.21225 | 30512 ft | 564 kts | 121° |
| 2026-05-04 23:14 | 35.59093 | 141.25726 | 30968 ft | 563 kts | 121° |
| 2026-05-04 23:14 | 35.57760 | 141.30226 | 31366 ft | 563 kts | 122° |
| 2026-05-04 23:14 | 35.56426 | 141.34721 | 31844 ft | 561 kts | 121° |
| 2026-05-04 23:15 | 35.55099 | 141.39175 | 32207 ft | 561 kts | 122° |
| 2026-05-04 23:15 | 35.53737 | 141.43732 | 32540 ft | 562 kts | 122° |
| 2026-05-04 23:15 | 35.52403 | 141.48192 | 33004 ft | 560 kts | 122° |
| 2026-05-04 23:15 | 35.51066 | 141.52653 | 33470 ft | 557 kts | 122° |
| 2026-05-04 23:16 | 35.49735 | 141.57086 | 33841 ft | 557 kts | 122° |
| 2026-05-04 23:16 | 35.48391 | 141.61554 | 34306 ft | 553 kts | 122° |
| 2026-05-04 23:16 | 35.47068 | 141.65939 | 34647 ft | 553 kts | 122° |
| 2026-05-04 23:16 | 35.45728 | 141.70395 | 34657 ft | 561 kts | 121° |
| 2026-05-04 23:17 | 35.44666 | 141.75124 | 34738 ft | 579 kts | 111° |
| 2026-05-04 23:17 | 35.44120 | 141.80138 | 34999 ft | 592 kts | 101° |
| 2026-05-04 23:17 | 35.44029 | 141.85237 | 35432 ft | 592 kts | 98° |
| 2026-05-04 23:17 | 35.44022 | 141.90317 | 35749 ft | 591 kts | 97° |
| 2026-05-04 23:18 | 35.44014 | 141.95287 | 35931 ft | 591 kts | 98° |
| 2026-05-04 23:18 | 35.43996 | 142.00382 | 36021 ft | 594 kts | 97° |
| 2026-05-04 23:18 | 35.43939 | 142.10608 | 36252 ft | 598 kts | 96° |
| 2026-05-04 23:19 | 35.43904 | 142.15706 | 36496 ft | 597 kts | 97° |
| 2026-05-04 23:19 | 35.43864 | 142.20827 | 36815 ft | 594 kts | 96° |
| 2026-05-04 23:19 | 35.43822 | 142.25874 | 37098 ft | 592 kts | 97° |
| 2026-05-04 23:19 | 35.43774 | 142.30943 | 37145 ft | 593 kts | 98° |
| 2026-05-04 23:20 | 35.43669 | 142.41019 | 37151 ft | 594 kts | 96° |
| 2026-05-04 23:20 | 35.43554 | 142.51144 | 37164 ft | 594 kts | 96° |
| 2026-05-04 23:21 | 35.43427 | 142.61299 | 37160 ft | 596 kts | 97° |
| 2026-05-04 23:21 | 35.43292 | 142.71452 | 37123 ft | 596 kts | 97° |
| 2026-05-04 23:22 | 35.43151 | 142.81517 | 37126 ft | 590 kts | 98° |
| 2026-05-04 23:22 | 35.43000 | 142.91565 | 37146 ft | 588 kts | 97° |
| 2026-05-04 23:23 | 35.42839 | 143.01567 | 37142 ft | 589 kts | 97° |
| 2026-05-04 23:23 | 35.42670 | 143.11606 | 37138 ft | 591 kts | 98° |
| 2026-05-04 23:24 | 35.42723 | 143.21721 | 37140 ft | 595 kts | 89° |
| 2026-05-04 23:24 | 35.43383 | 143.26685 | 37119 ft | 595 kts | 78° |
| 2026-05-04 23:24 | 35.44575 | 143.31558 | 37148 ft | 598 kts | 69° |
| 2026-05-04 23:25 | 35.48418 | 143.40579 | 37156 ft | 601 kts | 53° |
| 2026-05-04 23:25 | 35.53863 | 143.48280 | 37157 ft | 599 kts | 41° |
| 2026-05-04 23:26 | 35.59665 | 143.55574 | 37158 ft | 597 kts | 40° |
| 2026-05-04 23:26 | 35.65402 | 143.62863 | 37158 ft | 594 kts | 42° |
| 2026-05-04 23:27 | 35.71157 | 143.70180 | 37138 ft | 599 kts | 41° |
| 2026-05-04 23:27 | 35.76965 | 143.77603 | 37145 ft | 598 kts | 42° |
| 2026-05-04 23:28 | 35.82695 | 143.84958 | 37148 ft | 596 kts | 42° |
| 2026-05-04 23:28 | 35.88444 | 143.92357 | 37146 ft | 600 kts | 43° |
| 2026-05-04 23:29 | 35.94199 | 143.99788 | 37139 ft | 600 kts | 43° |
| 2026-05-04 23:29 | 35.99938 | 144.07219 | 37141 ft | 601 kts | 41° |
| 2026-05-04 23:30 | 36.05706 | 144.14710 | 37147 ft | 602 kts | 43° |
| 2026-05-04 23:30 | 36.11446 | 144.22189 | 37141 ft | 599 kts | 43° |
| 2026-05-04 23:31 | 36.17206 | 144.29713 | 37126 ft | 600 kts | 43° |
| 2026-05-04 23:31 | 36.22941 | 144.37221 | 37136 ft | 602 kts | 43° |
| 2026-05-04 23:32 | 36.28715 | 144.44798 | 37143 ft | 605 kts | 42° |
| 2026-05-04 23:32 | 36.34434 | 144.52321 | 37132 ft | 601 kts | 42° |
| 2026-05-04 23:33 | 36.40187 | 144.59904 | 37137 ft | 603 kts | 43° |
| 2026-05-04 23:33 | 36.45935 | 144.67499 | 37111 ft | 603 kts | 43° |
| 2026-05-04 23:34 | 36.51665 | 144.75087 | 37110 ft | 602 kts | 44° |
| 2026-05-04 23:34 | 36.57361 | 144.82649 | 37104 ft | 606 kts | 43° |
| 2026-05-04 23:35 | 36.63120 | 144.90311 | 37106 ft | 606 kts | 44° |
| 2026-05-04 23:35 | 36.68897 | 144.98013 | 37090 ft | 609 kts | 44° |
| 2026-05-04 23:36 | 36.74681 | 145.05748 | 37098 ft | 610 kts | 43° |
| 2026-05-04 23:36 | 36.80421 | 145.13440 | 37088 ft | 606 kts | 43° |
| 2026-05-04 23:37 | 36.86159 | 145.21147 | 37087 ft | 607 kts | 44° |
| 2026-05-04 23:37 | 36.91974 | 145.28975 | 37093 ft | 612 kts | 44° |
| 2026-05-04 23:38 | 36.97764 | 145.36791 | 37090 ft | 607 kts | 44° |
| 2026-05-04 23:38 | 37.03491 | 145.44539 | 37085 ft | 605 kts | 43° |
| 2026-05-04 23:39 | 37.09190 | 145.52267 | 37090 ft | 608 kts | 43° |
| 2026-05-04 23:39 | 37.14884 | 145.60007 | 37072 ft | 606 kts | 44° |
| 2026-05-04 23:40 | 37.20349 | 145.68068 | 37038 ft | 611 kts | 55° |
| 2026-05-04 23:40 | 37.24953 | 145.77066 | 37052 ft | 612 kts | 57° |
| 2026-05-04 23:41 | 37.29495 | 145.86162 | 37045 ft | 611 kts | 57° |
| 2026-05-04 23:41 | 37.33964 | 145.95140 | 37043 ft | 609 kts | 58° |
| 2026-05-04 23:42 | 37.38447 | 146.04173 | 37051 ft | 611 kts | 58° |
| 2026-05-04 23:42 | 37.42910 | 146.13194 | 37044 ft | 609 kts | 58° |
| 2026-05-04 23:43 | 37.47407 | 146.22311 | 37044 ft | 611 kts | 57° |
| 2026-05-04 23:43 | 37.51867 | 146.31375 | 37050 ft | 609 kts | 57° |
| 2026-05-04 23:44 | 37.56287 | 146.40384 | 37058 ft | 605 kts | 57° |
| 2026-05-04 23:44 | 37.60746 | 146.49497 | 37057 ft | 610 kts | 57° |
| 2026-05-04 23:45 | 37.65189 | 146.58601 | 37054 ft | 607 kts | 58° |
| 2026-05-04 23:45 | 37.69585 | 146.67638 | 37028 ft | 607 kts | 58° |
| 2026-05-04 23:46 | 37.74003 | 146.76739 | 37013 ft | 606 kts | 58° |
| 2026-05-04 23:46 | 37.78413 | 146.85854 | 37016 ft | 607 kts | 58° |
| 2026-05-04 23:47 | 37.82804 | 146.94954 | 37010 ft | 610 kts | 58° |
| 2026-05-04 23:47 | 37.87203 | 147.04097 | 37013 ft | 610 kts | 58° |
| 2026-05-04 23:48 | 37.91608 | 147.13277 | 37000 ft | 606 kts | 58° |
| 2026-05-04 23:48 | 37.95964 | 147.22380 | 37004 ft | 608 kts | 60° |
| 2026-05-04 23:49 | 38.00375 | 147.31624 | 37009 ft | 610 kts | 59° |
| 2026-05-04 23:49 | 38.04728 | 147.40771 | 37005 ft | 607 kts | 59° |
| 2026-05-04 23:50 | 38.09076 | 147.49936 | 37004 ft | 607 kts | 59° |
| 2026-05-04 23:50 | 38.13456 | 147.59192 | 36983 ft | 609 kts | 60° |
| 2026-05-04 23:51 | 38.17771 | 147.68341 | 36964 ft | 605 kts | 60° |
| 2026-05-04 23:51 | 38.22066 | 147.77470 | 36963 ft | 607 kts | 60° |
| 2026-05-04 23:52 | 38.26400 | 147.86711 | 36971 ft | 609 kts | 60° |
| 2026-05-04 23:52 | 38.30727 | 147.95958 | 36970 ft | 608 kts | 59° |
| 2026-05-04 23:53 | 38.35025 | 148.05173 | 36971 ft | 608 kts | 61° |
| 2026-05-04 23:53 | 38.39331 | 148.14433 | 36981 ft | 608 kts | 59° |
| 2026-05-04 23:54 | 38.43626 | 148.23694 | 36974 ft | 609 kts | 61° |
| 2026-05-04 23:54 | 38.47903 | 148.32945 | 36970 ft | 610 kts | 60° |
| 2026-05-04 23:55 | 38.52198 | 148.42259 | 36977 ft | 609 kts | 60° |
| 2026-05-04 23:56 | 38.58616 | 148.56229 | 36971 ft | 610 kts | 59° |
| 2026-05-04 23:56 | 38.62884 | 148.65553 | 36970 ft | 609 kts | 61° |
| 2026-05-04 23:57 | 38.67128 | 148.74852 | 36944 ft | 608 kts | 62° |
| 2026-05-04 23:57 | 38.71361 | 148.84154 | 36952 ft | 608 kts | 62° |
| 2026-05-04 23:58 | 38.75613 | 148.93526 | 36944 ft | 610 kts | 60° |
| 2026-05-04 23:58 | 38.79827 | 149.02840 | 36945 ft | 607 kts | 62° |
| 2026-05-04 23:59 | 38.84067 | 149.12241 | 36946 ft | 610 kts | 62° |
| 2026-05-04 23:59 | 38.88291 | 149.21632 | 36948 ft | 607 kts | 62° |
| 2026-05-05 00:00 | 38.92493 | 149.31004 | 36950 ft | 606 kts | 62° |
| 2026-05-05 00:00 | 38.96706 | 149.40427 | 36949 ft | 609 kts | 62° |
| 2026-05-05 00:01 | 39.00913 | 149.49866 | 36935 ft | 606 kts | 61° |
| 2026-05-05 00:01 | 39.05084 | 149.59251 | 36941 ft | 608 kts | 62° |
| 2026-05-05 00:02 | 39.09255 | 149.68668 | 36903 ft | 607 kts | 62° |
| 2026-05-05 00:02 | 39.13420 | 149.78095 | 36879 ft | 605 kts | 63° |
| 2026-05-05 00:03 | 39.17109 | 149.87807 | 36886 ft | 603 kts | 69° |
| 2026-05-05 00:03 | 39.20454 | 149.97708 | 36895 ft | 607 kts | 71° |
| 2026-05-05 00:04 | 39.23786 | 150.07638 | 36884 ft | 604 kts | 70° |
| 2026-05-05 00:04 | 39.27108 | 150.17589 | 36894 ft | 606 kts | 70° |
| 2026-05-05 00:05 | 39.30447 | 150.27631 | 36888 ft | 606 kts | 70° |
| 2026-05-05 00:05 | 39.33734 | 150.37553 | 36881 ft | 603 kts | 70° |
| 2026-05-05 00:06 | 39.37022 | 150.47519 | 36883 ft | 607 kts | 70° |
| 2026-05-05 00:06 | 39.40326 | 150.57568 | 36878 ft | 607 kts | 70° |
| 2026-05-05 00:07 | 39.43590 | 150.67528 | 36870 ft | 600 kts | 71° |
| 2026-05-05 00:07 | 39.46839 | 150.77483 | 36870 ft | 603 kts | 71° |
| 2026-05-05 00:08 | 39.50074 | 150.87430 | 36868 ft | 602 kts | 71° |
| 2026-05-05 00:08 | 39.53302 | 150.97394 | 36854 ft | 605 kts | 71° |
| 2026-05-05 00:09 | 39.56535 | 151.07402 | 36853 ft | 603 kts | 70° |
| 2026-05-05 00:09 | 39.59798 | 151.17548 | 36842 ft | 604 kts | 71° |
| 2026-05-05 00:10 | 39.63021 | 151.27600 | 36849 ft | 604 kts | 71° |
| 2026-05-05 00:10 | 39.66229 | 151.37642 | 36853 ft | 601 kts | 70° |
| 2026-05-05 00:11 | 39.69436 | 151.47719 | 36852 ft | 602 kts | 70° |
| 2026-05-05 00:11 | 39.72610 | 151.57729 | 36847 ft | 603 kts | 71° |
| 2026-05-05 00:12 | 39.75788 | 151.67784 | 36824 ft | 601 kts | 72° |
| 2026-05-05 00:12 | 39.78947 | 151.77820 | 36815 ft | 601 kts | 71° |
| 2026-05-05 00:13 | 39.82094 | 151.87856 | 36825 ft | 602 kts | 71° |
| 2026-05-05 00:13 | 39.85237 | 151.97910 | 36824 ft | 599 kts | 71° |
| 2026-05-05 00:14 | 39.88367 | 152.07964 | 36825 ft | 601 kts | 71° |
| 2026-05-05 00:14 | 39.91471 | 152.17970 | 36829 ft | 600 kts | 71° |
| 2026-05-05 00:15 | 39.94585 | 152.28046 | 36829 ft | 599 kts | 72° |
| 2026-05-05 00:15 | 39.97668 | 152.38052 | 36825 ft | 596 kts | 72° |
| 2026-05-05 00:16 | 40.00736 | 152.48056 | 36835 ft | 597 kts | 72° |
| 2026-05-05 00:16 | 40.03786 | 152.58035 | 36842 ft | 594 kts | 72° |
| 2026-05-05 00:17 | 40.06836 | 152.68048 | 36824 ft | 594 kts | 73° |
| 2026-05-05 00:17 | 40.09875 | 152.78067 | 36817 ft | 595 kts | 72° |
| 2026-05-05 00:18 | 40.12885 | 152.88025 | 36794 ft | 593 kts | 73° |
| 2026-05-05 00:18 | 40.15877 | 152.97957 | 36792 ft | 590 kts | 73° |
| 2026-05-05 00:19 | 40.18882 | 153.07976 | 36799 ft | 592 kts | 73° |
| 2026-05-05 00:19 | 40.21852 | 153.17912 | 36800 ft | 590 kts | 73° |
| 2026-05-05 00:20 | 40.24834 | 153.27928 | 36809 ft | 592 kts | 73° |
| 2026-05-05 00:20 | 40.27816 | 153.37982 | 36814 ft | 591 kts | 73° |
| 2026-05-05 00:21 | 40.30776 | 153.47996 | 36813 ft | 591 kts | 73° |
| 2026-05-05 00:21 | 40.33772 | 153.58173 | 36811 ft | 591 kts | 73° |
| 2026-05-05 00:22 | 40.36723 | 153.68237 | 36801 ft | 591 kts | 74° |
| 2026-05-05 00:22 | 40.39659 | 153.78285 | 36799 ft | 588 kts | 74° |
| 2026-05-05 00:23 | 40.42555 | 153.88234 | 36795 ft | 590 kts | 74° |
| 2026-05-05 00:23 | 40.45483 | 153.98335 | 36795 ft | 589 kts | 74° |
| 2026-05-05 00:24 | 40.48358 | 154.08285 | 36789 ft | 586 kts | 75° |
| 2026-05-05 00:24 | 40.51251 | 154.18347 | 36790 ft | 588 kts | 74° |
| 2026-05-05 00:25 | 40.54125 | 154.28377 | 36790 ft | 589 kts | 74° |
| 2026-05-05 00:25 | 40.56993 | 154.38423 | 36795 ft | 588 kts | 73° |
| 2026-05-05 00:26 | 40.59859 | 154.48500 | 36793 ft | 588 kts | 73° |
| 2026-05-05 00:26 | 40.62709 | 154.58562 | 36791 ft | 587 kts | 73° |
| 2026-05-05 00:27 | 40.65530 | 154.68559 | 36776 ft | 586 kts | 75° |
| 2026-05-05 00:27 | 40.68360 | 154.78630 | 36780 ft | 586 kts | 74° |
| 2026-05-05 00:28 | 40.71160 | 154.88632 | 36779 ft | 586 kts | 74° |
| 2026-05-05 00:28 | 40.73961 | 154.98677 | 36784 ft | 584 kts | 74° |
| 2026-05-05 00:29 | 40.76758 | 155.08751 | 36785 ft | 586 kts | 74° |
| 2026-05-05 00:29 | 40.79552 | 155.18849 | 36784 ft | 584 kts | 75° |
| 2026-05-05 00:30 | 40.82309 | 155.28854 | 36784 ft | 584 kts | 75° |
| 2026-05-05 00:30 | 40.85084 | 155.38971 | 36786 ft | 586 kts | 75° |
| 2026-05-05 00:31 | 40.87844 | 155.49063 | 36784 ft | 583 kts | 75° |
| 2026-05-05 00:31 | 40.90580 | 155.59117 | 36782 ft | 586 kts | 74° |
| 2026-05-05 00:32 | 40.93344 | 155.69308 | 36764 ft | 584 kts | 75° |
| 2026-05-05 00:32 | 40.96054 | 155.79343 | 36766 ft | 583 kts | 75° |
| 2026-05-05 00:33 | 40.98780 | 155.89484 | 36766 ft | 584 kts | 75° |
| 2026-05-05 00:33 | 41.01503 | 155.99644 | 36778 ft | 582 kts | 75° |
| 2026-05-05 00:34 | 41.04213 | 156.09807 | 36778 ft | 585 kts | 75° |
| 2026-05-05 00:34 | 41.06895 | 156.19900 | 36776 ft | 581 kts | 74° |
| 2026-05-05 00:35 | 41.09569 | 156.30011 | 36779 ft | 582 kts | 74° |
| 2026-05-05 00:35 | 41.12221 | 156.40074 | 36755 ft | 580 kts | 74° |
| 2026-05-05 00:36 | 41.14888 | 156.50240 | 36761 ft | 581 kts | 75° |
| 2026-05-05 00:36 | 41.17538 | 156.60378 | 36761 ft | 579 kts | 75° |
| 2026-05-05 00:37 | 41.20166 | 156.70476 | 36744 ft | 577 kts | 76° |
| 2026-05-05 00:37 | 41.22778 | 156.80560 | 36750 ft | 578 kts | 76° |
| 2026-05-05 00:38 | 41.25368 | 156.90596 | 36757 ft | 577 kts | 75° |
| 2026-05-05 00:38 | 41.27949 | 157.00638 | 36769 ft | 576 kts | 75° |
| 2026-05-05 00:39 | 41.30523 | 157.10695 | 36764 ft | 575 kts | 75° |
| 2026-05-05 00:39 | 41.33095 | 157.20793 | 36761 ft | 577 kts | 75° |
| 2026-05-05 00:40 | 41.35649 | 157.30853 | 36756 ft | 576 kts | 75° |
| 2026-05-05 00:40 | 41.38203 | 157.40964 | 36753 ft | 575 kts | 75° |
| 2026-05-05 00:41 | 41.40730 | 157.51007 | 36760 ft | 577 kts | 75° |
| 2026-05-05 00:41 | 41.43259 | 157.61098 | 36769 ft | 575 kts | 75° |
| 2026-05-05 00:42 | 41.45791 | 157.71248 | 36747 ft | 574 kts | 76° |
| 2026-05-05 00:42 | 41.48310 | 157.81387 | 36749 ft | 574 kts | 76° |
| 2026-05-05 00:43 | 41.50802 | 157.91460 | 36758 ft | 575 kts | 76° |
| 2026-05-05 00:43 | 41.53286 | 158.01550 | 36764 ft | 573 kts | 76° |
| 2026-05-05 00:44 | 41.55766 | 158.11662 | 36771 ft | 573 kts | 76° |
| 2026-05-05 00:44 | 41.58254 | 158.21852 | 36768 ft | 575 kts | 75° |
| 2026-05-05 00:45 | 41.60716 | 158.31979 | 36771 ft | 572 kts | 75° |
| 2026-05-05 00:45 | 41.63152 | 158.42041 | 36773 ft | 571 kts | 76° |
| 2026-05-05 00:46 | 41.65583 | 158.52135 | 36771 ft | 573 kts | 75° |
| 2026-05-05 00:46 | 41.68020 | 158.62291 | 36770 ft | 572 kts | 75° |
| 2026-05-05 00:47 | 41.70446 | 158.72447 | 36756 ft | 569 kts | 76° |
| 2026-05-05 00:47 | 41.72838 | 158.82507 | 36755 ft | 572 kts | 76° |
| 2026-05-05 00:48 | 41.75229 | 158.92604 | 36764 ft | 570 kts | 76° |
| 2026-05-05 00:48 | 41.77607 | 159.02693 | 36761 ft | 568 kts | 76° |
| 2026-05-05 00:49 | 41.79975 | 159.12788 | 36765 ft | 570 kts | 76° |
| 2026-05-05 00:49 | 41.82343 | 159.22923 | 36766 ft | 570 kts | 76° |
| 2026-05-05 00:50 | 41.84703 | 159.33075 | 36768 ft | 569 kts | 76° |
| 2026-05-05 00:50 | 41.87058 | 159.43248 | 36778 ft | 568 kts | 76° |
| 2026-05-05 00:51 | 41.89386 | 159.53348 | 36784 ft | 567 kts | 76° |
| 2026-05-05 00:51 | 41.91702 | 159.63448 | 36783 ft | 570 kts | 75° |
| 2026-05-05 00:52 | 41.94002 | 159.73515 | 36769 ft | 567 kts | 76° |
| 2026-05-05 00:52 | 41.96304 | 159.83641 | 36776 ft | 567 kts | 76° |
| 2026-05-05 00:53 | 41.98583 | 159.93730 | 36767 ft | 567 kts | 77° |
| 2026-05-05 00:53 | 41.99853 | 160.04076 | 36777 ft | 559 kts | 89° |
| 2026-05-05 00:54 | 42.00438 | 160.14420 | 36780 ft | 556 kts | 90° |
| 2026-05-05 00:54 | 42.00946 | 160.24762 | 36781 ft | 556 kts | 91° |
| 2026-05-05 00:55 | 42.01413 | 160.35113 | 36783 ft | 557 kts | 91° |
| 2026-05-05 00:55 | 42.01852 | 160.45439 | 36787 ft | 555 kts | 91° |
| 2026-05-05 00:56 | 42.02271 | 160.55756 | 36792 ft | 554 kts | 91° |
| 2026-05-05 00:56 | 42.02675 | 160.66133 | 36785 ft | 555 kts | 91° |
| 2026-05-05 00:57 | 42.03063 | 160.76416 | 36779 ft | 554 kts | 92° |
| 2026-05-05 00:57 | 42.03440 | 160.86705 | 36782 ft | 554 kts | 91° |
| 2026-05-05 00:58 | 42.03812 | 160.97130 | 36783 ft | 554 kts | 91° |
| 2026-05-05 00:58 | 42.04170 | 161.07463 | 36800 ft | 554 kts | 91° |
| 2026-05-05 00:59 | 42.04518 | 161.17798 | 36787 ft | 555 kts | 91° |
| 2026-05-05 00:59 | 42.04858 | 161.28151 | 36788 ft | 553 kts | 91° |
| 2026-05-05 01:00 | 42.05188 | 161.38495 | 36799 ft | 554 kts | 91° |
| 2026-05-05 01:00 | 42.05506 | 161.48764 | 36800 ft | 554 kts | 91° |
| 2026-05-05 01:01 | 42.05818 | 161.59142 | 36804 ft | 553 kts | 91° |
| 2026-05-05 01:01 | 42.06117 | 161.69388 | 36793 ft | 552 kts | 92° |
| 2026-05-05 01:02 | 42.06410 | 161.79747 | 36802 ft | 552 kts | 91° |
| 2026-05-05 01:02 | 42.06692 | 161.90044 | 36804 ft | 552 kts | 92° |
| 2026-05-05 01:03 | 42.06965 | 162.00352 | 36807 ft | 552 kts | 91° |
| 2026-05-05 01:03 | 42.07227 | 162.10600 | 36808 ft | 552 kts | 91° |
| 2026-05-05 01:04 | 42.07483 | 162.20947 | 36814 ft | 551 kts | 91° |
| 2026-05-05 01:04 | 42.07845 | 162.36319 | 36825 ft | 553 kts | 91° |
| 2026-05-05 01:05 | 42.08077 | 162.46643 | 36821 ft | 553 kts | 91° |
| 2026-05-05 01:05 | 42.08299 | 162.56931 | 36827 ft | 552 kts | 91° |
| 2026-05-05 01:06 | 42.08512 | 162.67235 | 36815 ft | 553 kts | 91° |
| 2026-05-05 01:06 | 42.08716 | 162.77554 | 36818 ft | 552 kts | 91° |
| 2026-05-05 01:07 | 42.08911 | 162.87897 | 36825 ft | 551 kts | 91° |
| 2026-05-05 01:07 | 42.09096 | 162.98190 | 36823 ft | 551 kts | 91° |
| 2026-05-05 01:08 | 42.09271 | 163.08440 | 36831 ft | 549 kts | 91° |
| 2026-05-05 01:08 | 42.09437 | 163.18692 | 36833 ft | 550 kts | 91° |
| 2026-05-05 01:09 | 42.09594 | 163.28943 | 36837 ft | 549 kts | 91° |
| 2026-05-05 01:09 | 42.09742 | 163.39174 | 36848 ft | 548 kts | 91° |
| 2026-05-05 01:10 | 42.09881 | 163.49497 | 36840 ft | 550 kts | 91° |
| 2026-05-05 01:10 | 42.10010 | 163.59714 | 36835 ft | 549 kts | 90° |
| 2026-05-05 01:11 | 42.10130 | 163.69936 | 36833 ft | 548 kts | 91° |
| 2026-05-05 01:11 | 42.10242 | 163.80225 | 36832 ft | 549 kts | 91° |
| 2026-05-05 01:12 | 42.10344 | 163.90436 | 36837 ft | 548 kts | 91° |
| 2026-05-05 01:12 | 42.10436 | 164.00694 | 36840 ft | 548 kts | 91° |
| 2026-05-05 01:13 | 42.10520 | 164.10927 | 36850 ft | 547 kts | 91° |
| 2026-05-05 01:13 | 42.10595 | 164.21205 | 36849 ft | 548 kts | 91° |
| 2026-05-05 01:14 | 42.10660 | 164.31468 | 36844 ft | 550 kts | 91° |
| 2026-05-05 01:14 | 42.10716 | 164.41670 | 36844 ft | 549 kts | 91° |
| 2026-05-05 01:15 | 42.10764 | 164.51924 | 36852 ft | 548 kts | 91° |
| 2026-05-05 01:15 | 42.10802 | 164.62216 | 36851 ft | 549 kts | 90° |
| 2026-05-05 01:16 | 42.10831 | 164.72430 | 36848 ft | 548 kts | 91° |
| 2026-05-05 01:16 | 42.10851 | 164.82619 | 36867 ft | 547 kts | 91° |
| 2026-05-05 01:17 | 42.10862 | 164.92844 | 36864 ft | 547 kts | 91° |
| 2026-05-05 01:17 | 42.10864 | 165.03062 | 36856 ft | 548 kts | 91° |
| 2026-05-05 01:18 | 42.10857 | 165.13266 | 36871 ft | 548 kts | 91° |
| 2026-05-05 01:18 | 42.10840 | 165.23503 | 36863 ft | 548 kts | 91° |
| 2026-05-05 01:19 | 42.10815 | 165.33751 | 36875 ft | 548 kts | 91° |
| 2026-05-05 01:19 | 42.10780 | 165.43971 | 36876 ft | 547 kts | 91° |
| 2026-05-05 01:20 | 42.10737 | 165.54147 | 36879 ft | 548 kts | 90° |
| 2026-05-05 01:20 | 42.10684 | 165.64395 | 36874 ft | 548 kts | 91° |
| 2026-05-05 01:21 | 42.10622 | 165.74620 | 36872 ft | 548 kts | 91° |
| 2026-05-05 01:21 | 42.10552 | 165.84857 | 36882 ft | 548 kts | 92° |
| 2026-05-05 01:22 | 42.10471 | 165.95106 | 36874 ft | 550 kts | 91° |
| 2026-05-05 01:22 | 42.10383 | 166.05306 | 36889 ft | 549 kts | 91° |
| 2026-05-05 01:23 | 42.10284 | 166.15570 | 36901 ft | 549 kts | 91° |
| 2026-05-05 01:23 | 42.10177 | 166.25792 | 36910 ft | 548 kts | 91° |
| 2026-05-05 01:24 | 42.10061 | 166.35991 | 36924 ft | 547 kts | 91° |
| 2026-05-05 01:24 | 42.09935 | 166.46258 | 36922 ft | 549 kts | 90° |
| 2026-05-05 01:25 | 42.09801 | 166.56509 | 36930 ft | 547 kts | 91° |
| 2026-05-05 01:25 | 42.09658 | 166.66660 | 36925 ft | 547 kts | 91° |
| 2026-05-05 01:26 | 42.09505 | 166.76933 | 36921 ft | 549 kts | 91° |
| 2026-05-05 01:26 | 42.09344 | 166.87140 | 36924 ft | 549 kts | 91° |
| 2026-05-05 01:27 | 42.09172 | 166.97385 | 36934 ft | 549 kts | 91° |
| 2026-05-05 01:27 | 42.08993 | 167.07565 | 36936 ft | 548 kts | 91° |
| 2026-05-05 01:28 | 42.08804 | 167.17804 | 36934 ft | 549 kts | 90° |
| 2026-05-05 01:28 | 42.08606 | 167.28029 | 36951 ft | 548 kts | 91° |
| 2026-05-05 01:29 | 42.08399 | 167.38268 | 36960 ft | 548 kts | 91° |
| 2026-05-05 01:29 | 42.08183 | 167.48492 | 36961 ft | 549 kts | 90° |
| 2026-05-05 01:30 | 42.07957 | 167.58723 | 36969 ft | 546 kts | 90° |
| 2026-05-05 01:30 | 42.07724 | 167.68924 | 36952 ft | 549 kts | 91° |
| 2026-05-05 01:31 | 42.07481 | 167.79125 | 36964 ft | 549 kts | 91° |
| 2026-05-05 01:31 | 42.07228 | 167.89374 | 36968 ft | 549 kts | 91° |
| 2026-05-05 01:32 | 42.06965 | 167.99625 | 36972 ft | 549 kts | 90° |
| 2026-05-05 01:32 | 42.06695 | 168.09853 | 36975 ft | 550 kts | 91° |
| 2026-05-05 01:33 | 42.06414 | 168.20123 | 36980 ft | 550 kts | 90° |
| 2026-05-05 01:33 | 42.06125 | 168.30333 | 36996 ft | 549 kts | 91° |
| 2026-05-05 01:34 | 42.05827 | 168.40570 | 37001 ft | 551 kts | 90° |
| 2026-05-05 01:34 | 42.05518 | 168.50842 | 37010 ft | 550 kts | 90° |
| 2026-05-05 01:35 | 42.05201 | 168.61099 | 37015 ft | 549 kts | 90° |
| 2026-05-05 01:35 | 42.04875 | 168.71329 | 37013 ft | 550 kts | 91° |
| 2026-05-05 01:36 | 42.04538 | 168.81636 | 37017 ft | 552 kts | 91° |
| 2026-05-05 01:36 | 42.04195 | 168.91836 | 37035 ft | 551 kts | 91° |
| 2026-05-05 01:37 | 42.03841 | 169.02094 | 37034 ft | 551 kts | 91° |
| 2026-05-05 01:37 | 42.03476 | 169.12401 | 37039 ft | 551 kts | 90° |
| 2026-05-05 01:38 | 42.03103 | 169.22661 | 37049 ft | 552 kts | 91° |
| 2026-05-05 01:38 | 42.02720 | 169.32965 | 37051 ft | 552 kts | 90° |